sensor_id;sensor_type;location;lat;lon;timestamp;P1;durP1;ratioP1;P2;durP2;ratioP2
47882;SDS011;37739;50.350;7.578;2023-12-22T00:01:48;2.00;;;0.80;;
47882;SDS011;37739;50.350;7.578;2023-12-22T00:04:14;1.20;;;0.77;;
47882;SDS011;37739;50.350;7.578;2023-12-22T00:06:39;1.23;;;0.80;;
47882;SDS011;37739;50.350;7.578;2023-12-22T00:09:07;1.30;;;0.73;;
47882;SDS011;37739;50.350;7.578;2023-12-22T00:11:32;0.80;;;0.57;;
47882;SDS011;37739;50.350;7.578;2023-12-22T00:14:00;3.97;;;0.63;;
47882;SDS011;37739;50.350;7.578;2023-12-22T00:16:25;1.20;;;0.70;;
47882;SDS011;37739;50.350;7.578;2023-12-22T00:18:51;0.90;;;0.60;;
47882;SDS011;37739;50.350;7.578;2023-12-22T00:21:17;1.90;;;0.97;;
47882;SDS011;37739;50.350;7.578;2023-12-22T00:23:42;1.70;;;0.80;;
47882;SDS011;37739;50.350;7.578;2023-12-22T00:26:12;1.80;;;1.10;;
47882;SDS011;37739;50.350;7.578;2023-12-22T00:28:37;2.10;;;0.93;;
47882;SDS011;37739;50.350;7.578;2023-12-22T00:31:03;3.53;;;1.10;;
47882;SDS011;37739;50.350;7.578;2023-12-22T00:33:28;5.23;;;1.20;;
47882;SDS011;37739;50.350;7.578;2023-12-22T00:35:53;2.83;;;0.90;;
47882;SDS011;37739;50.350;7.578;2023-12-22T00:38:19;2.73;;;1.07;;
47882;SDS011;37739;50.350;7.578;2023-12-22T00:40:44;3.60;;;2.07;;
47882;SDS011;37739;50.350;7.578;2023-12-22T00:43:09;2.50;;;1.53;;
47882;SDS011;37739;50.350;7.578;2023-12-22T00:45:37;3.97;;;1.27;;
47882;SDS011;37739;50.350;7.578;2023-12-22T00:48:02;2.67;;;1.17;;
47882;SDS011;37739;50.350;7.578;2023-12-22T00:50:30;1.80;;;1.00;;
47882;SDS011;37739;50.350;7.578;2023-12-22T00:52:56;2.93;;;0.60;;
47882;SDS011;37739;50.350;7.578;2023-12-22T00:55:21;2.97;;;0.87;;
47882;SDS011;37739;50.350;7.578;2023-12-22T00:57:46;2.57;;;1.60;;
47882;SDS011;37739;50.350;7.578;2023-12-22T01:00:12;3.77;;;1.13;;
47882;SDS011;37739;50.350;7.578;2023-12-22T01:02:38;1.93;;;1.00;;
47882;SDS011;37739;50.350;7.578;2023-12-22T01:05:03;3.90;;;1.00;;
47882;SDS011;37739;50.350;7.578;2023-12-22T01:07:29;4.60;;;1.00;;
47882;SDS011;37739;50.350;7.578;2023-12-22T01:09:54;2.30;;;1.17;;
47882;SDS011;37739;50.350;7.578;2023-12-22T01:12:20;3.10;;;1.00;;
47882;SDS011;37739;50.350;7.578;2023-12-22T01:14:47;3.87;;;1.33;;
47882;SDS011;37739;50.350;7.578;2023-12-22T01:17:16;1.70;;;1.00;;
47882;SDS011;37739;50.350;7.578;2023-12-22T01:19:46;1.73;;;1.00;;
47882;SDS011;37739;50.350;7.578;2023-12-22T01:22:11;2.23;;;0.90;;
47882;SDS011;37739;50.350;7.578;2023-12-22T01:24:37;1.20;;;0.90;;
47882;SDS011;37739;50.350;7.578;2023-12-22T01:27:10;1.53;;;0.63;;
47882;SDS011;37739;50.350;7.578;2023-12-22T01:29:35;1.50;;;0.90;;
47882;SDS011;37739;50.350;7.578;2023-12-22T01:32:01;1.10;;;0.67;;
47882;SDS011;37739;50.350;7.578;2023-12-22T01:34:26;1.70;;;0.60;;
47882;SDS011;37739;50.350;7.578;2023-12-22T01:36:51;1.83;;;0.70;;
47882;SDS011;37739;50.350;7.578;2023-12-22T01:39:17;6.23;;;0.90;;
47882;SDS011;37739;50.350;7.578;2023-12-22T01:41:44;1.60;;;0.80;;
47882;SDS011;37739;50.350;7.578;2023-12-22T01:44:12;1.87;;;0.80;;
47882;SDS011;37739;50.350;7.578;2023-12-22T01:46:37;2.07;;;1.17;;
47882;SDS011;37739;50.350;7.578;2023-12-22T01:49:03;1.20;;;0.83;;
47882;SDS011;37739;50.350;7.578;2023-12-22T01:51:30;1.97;;;1.10;;
47882;SDS011;37739;50.350;7.578;2023-12-22T01:54:00;2.13;;;0.80;;
47882;SDS011;37739;50.350;7.578;2023-12-22T01:56:26;1.97;;;0.90;;
47882;SDS011;37739;50.350;7.578;2023-12-22T01:58:55;1.40;;;0.70;;
47882;SDS011;37739;50.350;7.578;2023-12-22T02:01:24;2.00;;;1.00;;
47882;SDS011;37739;50.350;7.578;2023-12-22T02:03:50;1.00;;;0.70;;
47882;SDS011;37739;50.350;7.578;2023-12-22T02:06:19;1.27;;;0.97;;
47882;SDS011;37739;50.350;7.578;2023-12-22T02:08:47;1.77;;;1.00;;
47882;SDS011;37739;50.350;7.578;2023-12-22T02:11:13;1.40;;;0.80;;
47882;SDS011;37739;50.350;7.578;2023-12-22T02:13:39;2.93;;;1.50;;
47882;SDS011;37739;50.350;7.578;2023-12-22T02:18:58;1.10;;;1.00;;
47882;SDS011;37739;50.350;7.578;2023-12-22T02:21:29;2.27;;;0.83;;
47882;SDS011;37739;50.350;7.578;2023-12-22T02:23:54;1.40;;;1.00;;
47882;SDS011;37739;50.350;7.578;2023-12-22T02:26:22;3.83;;;1.77;;
47882;SDS011;37739;50.350;7.578;2023-12-22T02:28:55;3.93;;;1.87;;
47882;SDS011;37739;50.350;7.578;2023-12-22T02:31:37;2.10;;;1.40;;
47882;SDS011;37739;50.350;7.578;2023-12-22T02:34:11;2.27;;;1.30;;
47882;SDS011;37739;50.350;7.578;2023-12-22T02:36:39;3.17;;;1.70;;
47882;SDS011;37739;50.350;7.578;2023-12-22T02:39:07;3.17;;;0.90;;
47882;SDS011;37739;50.350;7.578;2023-12-22T02:41:35;2.07;;;1.10;;
47882;SDS011;37739;50.350;7.578;2023-12-22T02:44:01;1.50;;;1.10;;
47882;SDS011;37739;50.350;7.578;2023-12-22T02:46:29;2.83;;;1.10;;
47882;SDS011;37739;50.350;7.578;2023-12-22T02:48:54;1.87;;;1.00;;
47882;SDS011;37739;50.350;7.578;2023-12-22T02:51:22;3.17;;;1.23;;
47882;SDS011;37739;50.350;7.578;2023-12-22T02:53:47;3.20;;;1.13;;
47882;SDS011;37739;50.350;7.578;2023-12-22T02:56:13;2.10;;;1.20;;
47882;SDS011;37739;50.350;7.578;2023-12-22T02:58:40;3.60;;;1.70;;
47882;SDS011;37739;50.350;7.578;2023-12-22T03:01:06;4.73;;;1.60;;
47882;SDS011;37739;50.350;7.578;2023-12-22T03:03:36;5.70;;;1.97;;
47882;SDS011;37739;50.350;7.578;2023-12-22T03:06:01;6.67;;;1.90;;
47882;SDS011;37739;50.350;7.578;2023-12-22T03:08:26;3.93;;;1.57;;
47882;SDS011;37739;50.350;7.578;2023-12-22T03:10:54;6.10;;;1.97;;
47882;SDS011;37739;50.350;7.578;2023-12-22T03:13:22;5.67;;;2.13;;
47882;SDS011;37739;50.350;7.578;2023-12-22T03:15:47;2.87;;;1.50;;
47882;SDS011;37739;50.350;7.578;2023-12-22T03:18:13;5.30;;;1.70;;
47882;SDS011;37739;50.350;7.578;2023-12-22T03:20:38;5.67;;;1.83;;
47882;SDS011;37739;50.350;7.578;2023-12-22T03:23:06;5.80;;;1.80;;
47882;SDS011;37739;50.350;7.578;2023-12-22T03:25:34;5.80;;;1.83;;
47882;SDS011;37739;50.350;7.578;2023-12-22T03:27:59;7.10;;;2.37;;
47882;SDS011;37739;50.350;7.578;2023-12-22T03:30:27;6.90;;;2.20;;
47882;SDS011;37739;50.350;7.578;2023-12-22T03:32:54;6.20;;;1.83;;
47882;SDS011;37739;50.350;7.578;2023-12-22T03:35:22;3.97;;;1.50;;
47882;SDS011;37739;50.350;7.578;2023-12-22T03:37:47;4.17;;;1.80;;
47882;SDS011;37739;50.350;7.578;2023-12-22T03:40:12;7.73;;;1.77;;
47882;SDS011;37739;50.350;7.578;2023-12-22T03:42:40;7.10;;;2.20;;
47882;SDS011;37739;50.350;7.578;2023-12-22T03:45:05;4.93;;;1.67;;
47882;SDS011;37739;50.350;7.578;2023-12-22T03:47:33;4.03;;;1.90;;
47882;SDS011;37739;50.350;7.578;2023-12-22T03:50:01;7.60;;;2.00;;
47882;SDS011;37739;50.350;7.578;2023-12-22T03:52:26;5.17;;;1.70;;
47882;SDS011;37739;50.350;7.578;2023-12-22T03:54:51;7.37;;;1.93;;
47882;SDS011;37739;50.350;7.578;2023-12-22T03:57:19;5.80;;;2.30;;
47882;SDS011;37739;50.350;7.578;2023-12-22T03:59:47;7.20;;;2.33;;
47882;SDS011;37739;50.350;7.578;2023-12-22T04:02:12;4.17;;;1.80;;
47882;SDS011;37739;50.350;7.578;2023-12-22T04:04:38;6.33;;;1.60;;
47882;SDS011;37739;50.350;7.578;2023-12-22T04:07:04;6.20;;;2.47;;
47882;SDS011;37739;50.350;7.578;2023-12-22T04:09:31;9.93;;;2.87;;
47882;SDS011;37739;50.350;7.578;2023-12-22T04:11:57;6.00;;;2.10;;
47882;SDS011;37739;50.350;7.578;2023-12-22T04:14:22;8.70;;;2.43;;
47882;SDS011;37739;50.350;7.578;2023-12-22T04:16:47;6.13;;;2.50;;
47882;SDS011;37739;50.350;7.578;2023-12-22T04:19:17;5.63;;;2.40;;
47882;SDS011;37739;50.350;7.578;2023-12-22T04:21:43;7.23;;;2.20;;
47882;SDS011;37739;50.350;7.578;2023-12-22T04:24:08;6.70;;;3.27;;
47882;SDS011;37739;50.350;7.578;2023-12-22T04:26:34;12.73;;;2.67;;
47882;SDS011;37739;50.350;7.578;2023-12-22T04:28:59;6.07;;;1.90;;
47882;SDS011;37739;50.350;7.578;2023-12-22T04:31:24;5.83;;;2.10;;
47882;SDS011;37739;50.350;7.578;2023-12-22T04:33:49;7.03;;;2.13;;
47882;SDS011;37739;50.350;7.578;2023-12-22T04:36:15;4.30;;;2.17;;
47882;SDS011;37739;50.350;7.578;2023-12-22T04:38:43;6.20;;;1.97;;
47882;SDS011;37739;50.350;7.578;2023-12-22T04:41:10;2.47;;;1.40;;
47882;SDS011;37739;50.350;7.578;2023-12-22T04:43:37;3.90;;;1.83;;
47882;SDS011;37739;50.350;7.578;2023-12-22T04:46:03;5.33;;;1.67;;
47882;SDS011;37739;50.350;7.578;2023-12-22T04:48:30;4.77;;;1.60;;
47882;SDS011;37739;50.350;7.578;2023-12-22T04:51:00;3.50;;;1.47;;
47882;SDS011;37739;50.350;7.578;2023-12-22T04:53:25;4.20;;;1.50;;
47882;SDS011;37739;50.350;7.578;2023-12-22T04:55:50;4.60;;;1.60;;
47882;SDS011;37739;50.350;7.578;2023-12-22T04:58:16;3.73;;;1.70;;
47882;SDS011;37739;50.350;7.578;2023-12-22T05:00:41;2.17;;;1.17;;
47882;SDS011;37739;50.350;7.578;2023-12-22T05:03:08;3.33;;;1.37;;
47882;SDS011;37739;50.350;7.578;2023-12-22T05:05:34;5.90;;;1.40;;
47882;SDS011;37739;50.350;7.578;2023-12-22T05:08:01;3.23;;;1.60;;
47882;SDS011;37739;50.350;7.578;2023-12-22T05:10:27;4.77;;;1.50;;
47882;SDS011;37739;50.350;7.578;2023-12-22T05:12:53;6.30;;;1.30;;
47882;SDS011;37739;50.350;7.578;2023-12-22T05:15:19;6.70;;;1.20;;
47882;SDS011;37739;50.350;7.578;2023-12-22T05:17:44;7.27;;;2.47;;
47882;SDS011;37739;50.350;7.578;2023-12-22T05:20:10;2.40;;;1.30;;
47882;SDS011;37739;50.350;7.578;2023-12-22T05:22:36;4.27;;;1.60;;
47882;SDS011;37739;50.350;7.578;2023-12-22T05:25:01;3.87;;;1.63;;
47882;SDS011;37739;50.350;7.578;2023-12-22T05:27:27;4.57;;;1.37;;
47882;SDS011;37739;50.350;7.578;2023-12-22T05:29:54;5.50;;;1.70;;
47882;SDS011;37739;50.350;7.578;2023-12-22T05:32:19;5.20;;;1.60;;
47882;SDS011;37739;50.350;7.578;2023-12-22T05:34:47;5.73;;;1.63;;
47882;SDS011;37739;50.350;7.578;2023-12-22T05:37:15;5.60;;;1.40;;
47882;SDS011;37739;50.350;7.578;2023-12-22T05:39:42;3.17;;;1.50;;
47882;SDS011;37739;50.350;7.578;2023-12-22T05:42:10;5.30;;;1.30;;
47882;SDS011;37739;50.350;7.578;2023-12-22T05:44:38;2.63;;;1.00;;
47882;SDS011;37739;50.350;7.578;2023-12-22T05:47:04;2.50;;;1.17;;
47882;SDS011;37739;50.350;7.578;2023-12-22T05:49:31;2.80;;;1.30;;
47882;SDS011;37739;50.350;7.578;2023-12-22T05:51:57;3.33;;;1.20;;
47882;SDS011;37739;50.350;7.578;2023-12-22T05:54:22;2.40;;;1.20;;
47882;SDS011;37739;50.350;7.578;2023-12-22T05:56:52;2.73;;;1.73;;
47882;SDS011;37739;50.350;7.578;2023-12-22T05:59:17;3.40;;;1.20;;
47882;SDS011;37739;50.350;7.578;2023-12-22T06:01:43;6.70;;;1.50;;
47882;SDS011;37739;50.350;7.578;2023-12-22T06:04:08;5.63;;;2.33;;
47882;SDS011;37739;50.350;7.578;2023-12-22T06:06:35;6.07;;;1.70;;
47882;SDS011;37739;50.350;7.578;2023-12-22T06:09:03;4.67;;;1.30;;
47882;SDS011;37739;50.350;7.578;2023-12-22T06:11:30;7.53;;;1.87;;
47882;SDS011;37739;50.350;7.578;2023-12-22T06:13:58;7.03;;;2.30;;
47882;SDS011;37739;50.350;7.578;2023-12-22T06:16:26;5.97;;;2.07;;
47882;SDS011;37739;50.350;7.578;2023-12-22T06:18:56;8.70;;;2.27;;
47882;SDS011;37739;50.350;7.578;2023-12-22T06:21:23;4.90;;;1.77;;
47882;SDS011;37739;50.350;7.578;2023-12-22T06:23:49;5.93;;;1.90;;
47882;SDS011;37739;50.350;7.578;2023-12-22T06:26:15;7.80;;;1.70;;
47882;SDS011;37739;50.350;7.578;2023-12-22T06:28:40;6.27;;;1.90;;
47882;SDS011;37739;50.350;7.578;2023-12-22T06:31:10;7.03;;;2.33;;
47882;SDS011;37739;50.350;7.578;2023-12-22T06:33:44;7.00;;;2.00;;
47882;SDS011;37739;50.350;7.578;2023-12-22T06:36:23;8.40;;;2.20;;
47882;SDS011;37739;50.350;7.578;2023-12-22T06:38:50;4.43;;;1.93;;
47882;SDS011;37739;50.350;7.578;2023-12-22T06:41:22;5.80;;;1.80;;
47882;SDS011;37739;50.350;7.578;2023-12-22T06:43:50;5.50;;;2.20;;
47882;SDS011;37739;50.350;7.578;2023-12-22T06:46:17;8.83;;;2.60;;
47882;SDS011;37739;50.350;7.578;2023-12-22T06:48:43;4.87;;;2.50;;
47882;SDS011;37739;50.350;7.578;2023-12-22T06:51:18;6.27;;;1.97;;
47882;SDS011;37739;50.350;7.578;2023-12-22T06:53:45;5.57;;;2.10;;
47882;SDS011;37739;50.350;7.578;2023-12-22T06:58:54;6.03;;;2.27;;
47882;SDS011;37739;50.350;7.578;2023-12-22T07:01:26;6.63;;;1.87;;
47882;SDS011;37739;50.350;7.578;2023-12-22T07:03:52;6.80;;;1.77;;
47882;SDS011;37739;50.350;7.578;2023-12-22T07:06:18;5.57;;;1.60;;
47882;SDS011;37739;50.350;7.578;2023-12-22T07:11:36;3.90;;;1.50;;
47882;SDS011;37739;50.350;7.578;2023-12-22T07:14:02;5.67;;;1.70;;
47882;SDS011;37739;50.350;7.578;2023-12-22T07:16:27;4.77;;;1.67;;
47882;SDS011;37739;50.350;7.578;2023-12-22T07:18:52;6.37;;;2.00;;
47882;SDS011;37739;50.350;7.578;2023-12-22T07:21:18;5.50;;;1.40;;
47882;SDS011;37739;50.350;7.578;2023-12-22T07:23:43;2.17;;;1.00;;
47882;SDS011;37739;50.350;7.578;2023-12-22T07:26:09;2.90;;;1.10;;
47882;SDS011;37739;50.350;7.578;2023-12-22T07:28:37;2.60;;;0.80;;
47882;SDS011;37739;50.350;7.578;2023-12-22T07:31:03;2.73;;;1.03;;
47882;SDS011;37739;50.350;7.578;2023-12-22T07:33:33;4.10;;;1.00;;
47882;SDS011;37739;50.350;7.578;2023-12-22T07:36:00;3.00;;;1.00;;
47882;SDS011;37739;50.350;7.578;2023-12-22T07:38:26;2.87;;;1.57;;
47882;SDS011;37739;50.350;7.578;2023-12-22T07:40:53;3.67;;;1.53;;
47882;SDS011;37739;50.350;7.578;2023-12-22T07:43:18;5.40;;;1.60;;
47882;SDS011;37739;50.350;7.578;2023-12-22T07:45:46;5.20;;;1.50;;
47882;SDS011;37739;50.350;7.578;2023-12-22T07:48:15;2.70;;;1.23;;
47882;SDS011;37739;50.350;7.578;2023-12-22T07:50:42;3.40;;;1.47;;
47882;SDS011;37739;50.350;7.578;2023-12-22T07:53:08;8.87;;;2.30;;
47882;SDS011;37739;50.350;7.578;2023-12-22T07:55:35;3.83;;;1.73;;
47882;SDS011;37739;50.350;7.578;2023-12-22T07:58:03;4.43;;;2.30;;
47882;SDS011;37739;50.350;7.578;2023-12-22T08:00:32;2.47;;;1.07;;
47882;SDS011;37739;50.350;7.578;2023-12-22T08:02:57;2.30;;;0.80;;
47882;SDS011;37739;50.350;7.578;2023-12-22T08:05:22;3.10;;;1.57;;
47882;SDS011;37739;50.350;7.578;2023-12-22T08:07:48;5.77;;;2.00;;
47882;SDS011;37739;50.350;7.578;2023-12-22T08:10:16;2.17;;;0.80;;
47882;SDS011;37739;50.350;7.578;2023-12-22T08:12:42;3.43;;;1.03;;
47882;SDS011;37739;50.350;7.578;2023-12-22T08:15:10;3.30;;;1.50;;
47882;SDS011;37739;50.350;7.578;2023-12-22T08:17:50;1.33;;;1.10;;
47882;SDS011;37739;50.350;7.578;2023-12-22T08:20:22;4.70;;;2.20;;
47882;SDS011;37739;50.350;7.578;2023-12-22T08:22:47;5.00;;;1.53;;
47882;SDS011;37739;50.350;7.578;2023-12-22T08:25:13;4.20;;;1.77;;
47882;SDS011;37739;50.350;7.578;2023-12-22T08:27:39;4.50;;;1.70;;
47882;SDS011;37739;50.350;7.578;2023-12-22T08:30:05;4.47;;;1.77;;
47882;SDS011;37739;50.350;7.578;2023-12-22T08:32:33;2.80;;;1.60;;
47882;SDS011;37739;50.350;7.578;2023-12-22T08:35:01;4.27;;;2.00;;
47882;SDS011;37739;50.350;7.578;2023-12-22T08:37:30;4.47;;;1.73;;
47882;SDS011;37739;50.350;7.578;2023-12-22T08:39:56;4.73;;;2.00;;
47882;SDS011;37739;50.350;7.578;2023-12-22T08:42:24;3.37;;;1.60;;
47882;SDS011;37739;50.350;7.578;2023-12-22T08:44:53;7.13;;;2.37;;
47882;SDS011;37739;50.350;7.578;2023-12-22T08:47:18;5.00;;;2.40;;
47882;SDS011;37739;50.350;7.578;2023-12-22T08:49:46;13.60;;;3.00;;
47882;SDS011;37739;50.350;7.578;2023-12-22T08:52:11;3.47;;;1.77;;
47882;SDS011;37739;50.350;7.578;2023-12-22T08:54:41;8.60;;;2.70;;
47882;SDS011;37739;50.350;7.578;2023-12-22T08:57:06;6.73;;;2.90;;
47882;SDS011;37739;50.350;7.578;2023-12-22T08:59:32;6.77;;;2.20;;
47882;SDS011;37739;50.350;7.578;2023-12-22T09:01:57;5.37;;;2.43;;
47882;SDS011;37739;50.350;7.578;2023-12-22T09:04:22;5.60;;;1.87;;
47882;SDS011;37739;50.350;7.578;2023-12-22T09:06:48;5.20;;;2.60;;
47882;SDS011;37739;50.350;7.578;2023-12-22T09:09:14;5.27;;;2.07;;
47882;SDS011;37739;50.350;7.578;2023-12-22T09:11:39;9.40;;;2.53;;
47882;SDS011;37739;50.350;7.578;2023-12-22T09:14:05;8.70;;;2.70;;
47882;SDS011;37739;50.350;7.578;2023-12-22T09:16:37;10.10;;;3.00;;
47882;SDS011;37739;50.350;7.578;2023-12-22T09:19:05;6.87;;;2.20;;
47882;SDS011;37739;50.350;7.578;2023-12-22T09:21:33;4.10;;;1.70;;
47882;SDS011;37739;50.350;7.578;2023-12-22T09:23:59;8.00;;;2.20;;
47882;SDS011;37739;50.350;7.578;2023-12-22T09:26:24;6.23;;;2.57;;
47882;SDS011;37739;50.350;7.578;2023-12-22T09:28:49;5.77;;;2.10;;
47882;SDS011;37739;50.350;7.578;2023-12-22T09:31:14;8.73;;;2.67;;
47882;SDS011;37739;50.350;7.578;2023-12-22T09:33:40;3.83;;;2.00;;
47882;SDS011;37739;50.350;7.578;2023-12-22T09:36:06;5.27;;;1.57;;
47882;SDS011;37739;50.350;7.578;2023-12-22T09:38:32;7.63;;;2.00;;
47882;SDS011;37739;50.350;7.578;2023-12-22T09:40:58;6.90;;;2.40;;
47882;SDS011;37739;50.350;7.578;2023-12-22T09:43:26;5.03;;;2.87;;
47882;SDS011;37739;50.350;7.578;2023-12-22T09:45:56;6.30;;;2.50;;
47882;SDS011;37739;50.350;7.578;2023-12-22T09:48:27;5.97;;;2.33;;
47882;SDS011;37739;50.350;7.578;2023-12-22T09:50:54;7.27;;;2.40;;
47882;SDS011;37739;50.350;7.578;2023-12-22T09:53:20;4.63;;;2.07;;
47882;SDS011;37739;50.350;7.578;2023-12-22T09:55:51;8.87;;;2.60;;
47882;SDS011;37739;50.350;7.578;2023-12-22T09:58:19;6.43;;;1.80;;
47882;SDS011;37739;50.350;7.578;2023-12-22T10:00:44;6.23;;;3.40;;
47882;SDS011;37739;50.350;7.578;2023-12-22T10:03:13;8.00;;;3.03;;
47882;SDS011;37739;50.350;7.578;2023-12-22T10:05:43;7.07;;;2.33;;
47882;SDS011;37739;50.350;7.578;2023-12-22T10:08:09;6.17;;;2.20;;
47882;SDS011;37739;50.350;7.578;2023-12-22T10:10:40;6.00;;;2.40;;
47882;SDS011;37739;50.350;7.578;2023-12-22T10:13:08;6.70;;;2.10;;
47882;SDS011;37739;50.350;7.578;2023-12-22T10:15:36;4.93;;;1.77;;
47882;SDS011;37739;50.350;7.578;2023-12-22T10:18:08;6.70;;;2.33;;
47882;SDS011;37739;50.350;7.578;2023-12-22T10:20:34;10.53;;;2.87;;
47882;SDS011;37739;50.350;7.578;2023-12-22T10:23:03;4.00;;;1.80;;
47882;SDS011;37739;50.350;7.578;2023-12-22T10:25:28;6.00;;;2.83;;
47882;SDS011;37739;50.350;7.578;2023-12-22T10:27:54;5.50;;;2.20;;
47882;SDS011;37739;50.350;7.578;2023-12-22T10:30:20;8.00;;;2.23;;
47882;SDS011;37739;50.350;7.578;2023-12-22T10:32:54;8.10;;;2.40;;
47882;SDS011;37739;50.350;7.578;2023-12-22T10:35:20;6.97;;;2.10;;
47882;SDS011;37739;50.350;7.578;2023-12-22T10:37:45;5.20;;;2.00;;
47882;SDS011;37739;50.350;7.578;2023-12-22T10:40:16;3.90;;;2.20;;
47882;SDS011;37739;50.350;7.578;2023-12-22T10:42:45;5.37;;;2.00;;
47882;SDS011;37739;50.350;7.578;2023-12-22T10:45:11;6.23;;;2.20;;
47882;SDS011;37739;50.350;7.578;2023-12-22T10:47:40;5.20;;;2.17;;
47882;SDS011;37739;50.350;7.578;2023-12-22T10:50:05;9.47;;;2.30;;
47882;SDS011;37739;50.350;7.578;2023-12-22T10:52:36;6.00;;;1.93;;
47882;SDS011;37739;50.350;7.578;2023-12-22T10:55:01;4.53;;;1.90;;
47882;SDS011;37739;50.350;7.578;2023-12-22T10:57:27;6.30;;;2.00;;
47882;SDS011;37739;50.350;7.578;2023-12-22T10:59:56;5.03;;;1.90;;
47882;SDS011;37739;50.350;7.578;2023-12-22T11:02:26;6.70;;;2.00;;
47882;SDS011;37739;50.350;7.578;2023-12-22T11:04:57;6.47;;;2.00;;
47882;SDS011;37739;50.350;7.578;2023-12-22T11:07:26;3.63;;;1.83;;
47882;SDS011;37739;50.350;7.578;2023-12-22T11:10:01;4.53;;;1.87;;
47882;SDS011;37739;50.350;7.578;2023-12-22T11:12:28;6.63;;;1.73;;
47882;SDS011;37739;50.350;7.578;2023-12-22T11:14:58;4.80;;;1.27;;
47882;SDS011;37739;50.350;7.578;2023-12-22T11:17:25;4.63;;;2.00;;
47882;SDS011;37739;50.350;7.578;2023-12-22T11:19:53;5.13;;;1.80;;
47882;SDS011;37739;50.350;7.578;2023-12-22T11:22:19;3.07;;;1.47;;
47882;SDS011;37739;50.350;7.578;2023-12-22T11:24:49;4.27;;;1.70;;
47882;SDS011;37739;50.350;7.578;2023-12-22T11:27:19;3.20;;;1.20;;
47882;SDS011;37739;50.350;7.578;2023-12-22T11:29:49;2.40;;;1.17;;
47882;SDS011;37739;50.350;7.578;2023-12-22T11:32:18;3.13;;;1.33;;
47882;SDS011;37739;50.350;7.578;2023-12-22T11:34:48;2.70;;;1.30;;
47882;SDS011;37739;50.350;7.578;2023-12-22T11:37:16;3.00;;;1.50;;
47882;SDS011;37739;50.350;7.578;2023-12-22T11:39:43;3.10;;;1.37;;
47882;SDS011;37739;50.350;7.578;2023-12-22T11:42:11;3.00;;;1.40;;
47882;SDS011;37739;50.350;7.578;2023-12-22T11:44:41;3.30;;;1.47;;
47882;SDS011;37739;50.350;7.578;2023-12-22T11:47:07;4.13;;;2.80;;
47882;SDS011;37739;50.350;7.578;2023-12-22T11:49:36;3.40;;;1.80;;
47882;SDS011;37739;50.350;7.578;2023-12-22T11:52:14;3.00;;;2.00;;
47882;SDS011;37739;50.350;7.578;2023-12-22T11:54:47;3.67;;;2.50;;
47882;SDS011;37739;50.350;7.578;2023-12-22T11:59:54;3.83;;;1.70;;
47882;SDS011;37739;50.350;7.578;2023-12-22T12:02:20;1.97;;;1.40;;
47882;SDS011;37739;50.350;7.578;2023-12-22T12:04:53;6.47;;;2.33;;
47882;SDS011;37739;50.350;7.578;2023-12-22T12:07:38;5.07;;;3.43;;
47882;SDS011;37739;50.350;7.578;2023-12-22T12:10:09;5.00;;;2.97;;
47882;SDS011;37739;50.350;7.578;2023-12-22T12:12:39;2.70;;;1.80;;
47882;SDS011;37739;50.350;7.578;2023-12-22T12:15:06;3.07;;;1.53;;
47882;SDS011;37739;50.350;7.578;2023-12-22T12:17:41;2.60;;;1.20;;
47882;SDS011;37739;50.350;7.578;2023-12-22T12:20:10;2.90;;;1.53;;
47882;SDS011;37739;50.350;7.578;2023-12-22T12:22:37;2.53;;;1.37;;
47882;SDS011;37739;50.350;7.578;2023-12-22T12:25:07;1.67;;;1.30;;
47882;SDS011;37739;50.350;7.578;2023-12-22T12:27:37;2.93;;;1.53;;
47882;SDS011;37739;50.350;7.578;2023-12-22T12:30:06;2.73;;;1.57;;
47882;SDS011;37739;50.350;7.578;2023-12-22T12:32:35;2.13;;;1.00;;
47882;SDS011;37739;50.350;7.578;2023-12-22T12:35:01;2.87;;;1.07;;
47882;SDS011;37739;50.350;7.578;2023-12-22T12:37:27;2.00;;;1.20;;
47882;SDS011;37739;50.350;7.578;2023-12-22T12:39:53;2.00;;;1.10;;
47882;SDS011;37739;50.350;7.578;2023-12-22T12:42:24;2.10;;;0.90;;
47882;SDS011;37739;50.350;7.578;2023-12-22T12:44:55;1.90;;;1.00;;
47882;SDS011;37739;50.350;7.578;2023-12-22T12:47:21;1.80;;;0.97;;
47882;SDS011;37739;50.350;7.578;2023-12-22T12:49:46;1.40;;;1.00;;
47882;SDS011;37739;50.350;7.578;2023-12-22T12:52:14;1.70;;;0.73;;
47882;SDS011;37739;50.350;7.578;2023-12-22T12:54:40;1.23;;;0.70;;
47882;SDS011;37739;50.350;7.578;2023-12-22T12:57:13;1.40;;;0.70;;
47882;SDS011;37739;50.350;7.578;2023-12-22T12:59:42;1.10;;;0.60;;
47882;SDS011;37739;50.350;7.578;2023-12-22T13:02:10;0.80;;;0.50;;
47882;SDS011;37739;50.350;7.578;2023-12-22T13:04:37;1.20;;;0.70;;
47882;SDS011;37739;50.350;7.578;2023-12-22T13:07:06;0.90;;;0.70;;
47882;SDS011;37739;50.350;7.578;2023-12-22T13:09:31;1.17;;;0.80;;
47882;SDS011;37739;50.350;7.578;2023-12-22T13:12:00;2.73;;;0.90;;
47882;SDS011;37739;50.350;7.578;2023-12-22T13:14:26;1.57;;;0.90;;
47882;SDS011;37739;50.350;7.578;2023-12-22T13:16:56;2.33;;;0.60;;
47882;SDS011;37739;50.350;7.578;2023-12-22T13:19:23;1.20;;;0.80;;
47882;SDS011;37739;50.350;7.578;2023-12-22T13:21:52;1.10;;;0.80;;
47882;SDS011;37739;50.350;7.578;2023-12-22T13:24:20;1.20;;;0.90;;
47882;SDS011;37739;50.350;7.578;2023-12-22T13:27:02;3.43;;;1.00;;
47882;SDS011;37739;50.350;7.578;2023-12-22T13:29:44;2.10;;;0.90;;
47882;SDS011;37739;50.350;7.578;2023-12-22T13:32:19;1.87;;;0.80;;
47882;SDS011;37739;50.350;7.578;2023-12-22T13:34:48;1.33;;;0.70;;
47882;SDS011;37739;50.350;7.578;2023-12-22T13:37:17;1.93;;;0.90;;
47882;SDS011;37739;50.350;7.578;2023-12-22T13:39:48;1.70;;;0.90;;
47882;SDS011;37739;50.350;7.578;2023-12-22T13:42:17;1.57;;;1.00;;
47882;SDS011;37739;50.350;7.578;2023-12-22T13:44:47;2.90;;;0.80;;
47882;SDS011;37739;50.350;7.578;2023-12-22T13:47:23;3.77;;;1.10;;
47882;SDS011;37739;50.350;7.578;2023-12-22T13:49:49;1.10;;;0.83;;
47882;SDS011;37739;50.350;7.578;2023-12-22T13:52:24;1.30;;;1.10;;
47882;SDS011;37739;50.350;7.578;2023-12-22T13:55:09;1.67;;;1.10;;
47882;SDS011;37739;50.350;7.578;2023-12-22T13:57:35;1.93;;;1.00;;
47882;SDS011;37739;50.350;7.578;2023-12-22T14:00:01;2.70;;;0.90;;
47882;SDS011;37739;50.350;7.578;2023-12-22T14:02:28;2.27;;;1.10;;
47882;SDS011;37739;50.350;7.578;2023-12-22T14:04:58;1.10;;;0.80;;
47882;SDS011;37739;50.350;7.578;2023-12-22T14:07:24;1.50;;;0.93;;
47882;SDS011;37739;50.350;7.578;2023-12-22T14:09:49;1.60;;;0.90;;
47882;SDS011;37739;50.350;7.578;2023-12-22T14:12:17;1.27;;;0.80;;
47882;SDS011;37739;50.350;7.578;2023-12-22T14:14:47;1.10;;;0.73;;
47882;SDS011;37739;50.350;7.578;2023-12-22T14:17:12;0.90;;;0.70;;
47882;SDS011;37739;50.350;7.578;2023-12-22T14:19:42;2.73;;;1.10;;
47882;SDS011;37739;50.350;7.578;2023-12-22T14:22:08;2.30;;;0.83;;
47882;SDS011;37739;50.350;7.578;2023-12-22T14:24:35;1.30;;;0.63;;
47882;SDS011;37739;50.350;7.578;2023-12-22T14:27:01;0.90;;;0.70;;
47882;SDS011;37739;50.350;7.578;2023-12-22T14:29:26;2.50;;;0.80;;
47882;SDS011;37739;50.350;7.578;2023-12-22T14:31:58;2.43;;;0.93;;
47882;SDS011;37739;50.350;7.578;2023-12-22T14:34:24;1.20;;;0.80;;
47882;SDS011;37739;50.350;7.578;2023-12-22T14:36:55;1.77;;;0.80;;
47882;SDS011;37739;50.350;7.578;2023-12-22T14:39:20;1.33;;;0.80;;
47882;SDS011;37739;50.350;7.578;2023-12-22T14:41:48;2.93;;;0.73;;
47882;SDS011;37739;50.350;7.578;2023-12-22T14:44:16;1.60;;;0.87;;
47882;SDS011;37739;50.350;7.578;2023-12-22T14:46:41;1.97;;;0.83;;
47882;SDS011;37739;50.350;7.578;2023-12-22T14:49:10;1.67;;;0.70;;
47882;SDS011;37739;50.350;7.578;2023-12-22T14:51:36;3.20;;;0.90;;
47882;SDS011;37739;50.350;7.578;2023-12-22T14:54:05;2.13;;;0.93;;
47882;SDS011;37739;50.350;7.578;2023-12-22T14:56:31;1.90;;;0.90;;
47882;SDS011;37739;50.350;7.578;2023-12-22T14:58:56;1.10;;;0.63;;
47882;SDS011;37739;50.350;7.578;2023-12-22T15:01:24;1.50;;;0.70;;